createdAt,value
2023-04-19T00:01:01.129Z,76.13
2023-04-19T00:03:29.896Z,77.12
2023-04-19T00:05:59.347Z,78.39
2023-04-19T00:08:25.875Z,79.67
2023-04-19T00:10:52.385Z,80.72
2023-04-19T00:13:18.963Z,81.30
2023-04-19T00:15:45.570Z,81.93
2023-04-19T00:18:12.069Z,82.04
2023-04-19T00:20:38.817Z,82.19
2023-04-19T00:23:05.292Z,82.63
2023-04-19T00:25:33.937Z,82.80
2023-04-19T00:28:00.340Z,82.98
2023-04-19T00:30:26.908Z,83.31
2023-04-19T00:32:53.390Z,83.62
2023-04-19T00:35:19.882Z,84.26
2023-04-19T00:37:46.484Z,84.50
2023-04-19T00:40:12.909Z,84.55
2023-04-19T00:42:39.251Z,84.90
2023-04-19T00:45:06.442Z,85.18
2023-04-19T00:47:33.320Z,85.48
2023-04-19T00:49:59.892Z,85.67
2023-04-19T00:52:26.881Z,85.93
2023-04-19T00:54:53.312Z,86.12
2023-04-19T00:57:21.165Z,86.20
2023-04-19T00:59:47.707Z,86.41
2023-04-19T01:02:14.312Z,86.45
2023-04-19T01:04:40.979Z,86.45
2023-04-19T01:07:08.424Z,86.42
2023-04-19T01:09:34.869Z,86.48
2023-04-19T01:12:03.820Z,86.74
2023-04-19T01:14:30.236Z,86.86
2023-04-19T01:16:57.327Z,87.03
2023-04-19T01:19:23.598Z,87.35
2023-04-19T01:21:52.059Z,87.39
2023-04-19T01:24:18.433Z,87.53
2023-04-19T01:26:44.958Z,87.77
2023-04-19T01:29:11.449Z,87.92
2023-04-19T01:31:37.988Z,88.10
2023-04-19T01:34:04.953Z,88.14
2023-04-19T01:36:31.493Z,88.27
2023-04-19T01:38:58.032Z,88.56
2023-04-19T01:41:26.610Z,88.70
2023-04-19T01:43:53.086Z,88.73
2023-04-19T01:46:19.671Z,88.92
2023-04-19T01:48:45.968Z,88.93
2023-04-19T01:51:12.347Z,89.16
2023-04-19T01:53:38.638Z,89.20
2023-04-19T01:56:05.292Z,89.36
2023-04-19T01:58:31.632Z,89.37
2023-04-19T02:00:58.222Z,89.54
2023-04-19T02:03:24.658Z,89.62
2023-04-19T02:05:51.077Z,89.59
2023-04-19T02:08:17.547Z,89.68
2023-04-19T02:10:43.848Z,89.76
2023-04-19T02:13:10.417Z,89.84
2023-04-19T02:15:36.815Z,89.86
2023-04-19T02:18:06.213Z,89.88
2023-04-19T02:20:32.800Z,90.00
2023-04-19T02:22:59.108Z,90.21
2023-04-19T02:25:25.544Z,90.29
2023-04-19T02:27:51.861Z,90.32
2023-04-19T02:30:18.256Z,90.40
2023-04-19T02:32:47.517Z,90.59
2023-04-19T02:35:13.867Z,90.63
2023-04-19T02:37:40.311Z,90.48
2023-04-19T02:40:07.206Z,90.53
2023-04-19T02:42:33.762Z,90.59
2023-04-19T02:45:00.183Z,90.61
2023-04-19T02:47:26.770Z,90.54
2023-04-19T02:49:53.203Z,90.64
2023-04-19T02:52:20.459Z,90.70
2023-04-19T02:54:47.661Z,90.63
2023-04-19T02:57:14.077Z,90.61
2023-04-19T02:59:40.530Z,90.65
2023-04-19T03:02:06.976Z,90.71
2023-04-19T03:04:33.842Z,90.73
2023-04-19T03:07:00.416Z,90.92
2023-04-19T03:09:26.765Z,90.96
2023-04-19T03:11:53.086Z,91.00
2023-04-19T03:14:19.574Z,91.13
2023-04-19T03:16:45.976Z,91.13
2023-04-19T03:19:12.439Z,91.24
2023-04-19T03:21:38.826Z,91.32
2023-04-19T03:24:05.535Z,91.29
2023-04-19T03:26:31.845Z,91.28
2023-04-19T03:28:58.166Z,91.32
2023-04-19T03:31:25.253Z,91.35
2023-04-19T03:33:51.619Z,91.31
2023-04-19T03:36:18.109Z,91.39
2023-04-19T03:38:44.390Z,91.42
2023-04-19T03:41:31.004Z,91.45
2023-04-19T03:44:00.537Z,91.53
2023-04-19T03:46:30.956Z,91.53
2023-04-19T03:48:57.489Z,91.65
2023-04-19T03:51:23.819Z,91.84
2023-04-19T03:53:50.314Z,91.82
2023-04-19T03:56:16.837Z,91.91
2023-04-19T03:58:43.175Z,91.98
2023-04-19T04:01:20.956Z,92.06
2023-04-19T04:03:48.015Z,92.14
2023-04-19T04:06:16.057Z,92.21
2023-04-19T04:08:42.767Z,92.16
2023-04-19T04:11:09.176Z,92.28
2023-04-19T04:13:35.651Z,92.30
2023-04-19T04:16:04.173Z,92.35
2023-04-19T04:18:32.206Z,92.36
2023-04-19T04:20:58.523Z,92.40
2023-04-19T04:23:25.482Z,92.35
2023-04-19T04:26:03.662Z,92.41
2023-04-19T04:28:31.676Z,92.41
2023-04-19T04:30:59.798Z,92.48
2023-04-19T04:33:27.893Z,92.49
2023-04-19T04:35:55.882Z,92.58
2023-04-19T04:38:25.104Z,92.47
2023-04-19T04:40:54.253Z,92.47
2023-04-19T04:43:22.210Z,92.53
2023-04-19T04:45:48.641Z,92.52
2023-04-19T04:48:15.498Z,92.54
2023-04-19T04:50:41.910Z,92.60
2023-04-19T04:53:10.098Z,92.69
2023-04-19T04:55:37.404Z,92.73
2023-04-19T04:58:06.762Z,92.77
2023-04-19T05:00:33.898Z,92.85
2023-04-19T05:03:01.787Z,92.78
2023-04-19T05:05:31.542Z,92.76
2023-04-19T05:07:58.172Z,92.92
2023-04-19T05:10:24.818Z,92.96
2023-04-19T05:12:51.219Z,93.12
2023-04-19T05:15:17.765Z,93.09
2023-04-19T05:17:44.286Z,93.17
2023-04-19T05:20:11.454Z,93.16
2023-04-19T05:22:37.935Z,93.27
2023-04-19T05:25:05.241Z,93.23
2023-04-19T05:27:31.681Z,93.18
2023-04-19T05:29:58.125Z,93.17
2023-04-19T05:32:24.573Z,93.21
2023-04-19T05:34:53.326Z,93.33
2023-04-19T05:37:19.587Z,93.35
2023-04-19T05:39:45.892Z,93.32
2023-04-19T05:42:12.275Z,93.21
2023-04-19T05:44:38.561Z,93.06
2023-04-19T05:47:05.097Z,92.92
2023-04-19T05:49:31.564Z,92.94
2023-04-19T05:51:58.065Z,92.83
2023-04-19T05:54:24.537Z,92.67
2023-04-19T05:56:51.014Z,92.80
2023-04-19T05:59:17.426Z,92.78
2023-04-19T06:01:44.035Z,92.69
2023-04-19T06:04:11.009Z,92.44
2023-04-19T06:06:37.750Z,92.56
2023-04-19T06:09:04.455Z,92.65
2023-04-19T06:11:38.830Z,92.63
2023-04-19T06:14:05.919Z,92.63
2023-04-19T06:16:32.496Z,92.63
2023-04-19T06:18:58.905Z,92.69
2023-04-19T06:21:26.478Z,92.60
2023-04-19T06:23:52.972Z,92.46
2023-04-19T06:26:22.276Z,92.37
2023-04-19T06:28:48.745Z,92.28
2023-04-19T06:31:15.270Z,92.05
2023-04-19T06:34:07.483Z,91.95
2023-04-19T06:37:24.753Z,91.85
2023-04-19T06:43:48.810Z,90.70
2023-04-19T06:46:58.653Z,89.32
2023-04-19T06:57:02.580Z,88.62
2023-04-19T08:28:27.909Z,82.09
2023-04-19T08:31:53.992Z,82.11
2023-04-19T08:35:24.098Z,82.07
2023-04-19T08:37:52.550Z,81.84
2023-04-19T08:40:20.110Z,81.42
2023-04-19T08:42:47.096Z,80.82
2023-04-19T08:45:27.530Z,79.64
2023-04-19T08:48:01.282Z,79.47
2023-04-19T08:50:36.071Z,79.78
2023-04-19T08:53:24.137Z,79.93
2023-04-19T08:56:12.257Z,80.47
2023-04-19T09:01:22.934Z,81.04
2023-04-19T09:04:07.398Z,80.94
2023-04-19T09:06:45.337Z,79.26
2023-04-19T09:09:56.020Z,79.73
2023-04-19T09:12:31.433Z,79.33
2023-04-19T09:15:01.865Z,79.59
2023-04-19T09:23:26.881Z,79.65
2023-04-19T09:26:22.166Z,80.08
2023-04-19T09:29:09.493Z,80.38
2023-04-19T09:31:51.478Z,80.94
2023-04-19T09:34:24.918Z,81.31
2023-04-19T09:37:11.067Z,81.22
2023-04-19T09:39:48.087Z,80.55
2023-04-19T09:42:30.748Z,80.05
2023-04-19T09:46:09.872Z,80.09
2023-04-19T09:48:23.956Z,80.74
2023-04-19T09:51:02.278Z,80.99
2023-04-19T09:53:34.865Z,81.11
2023-04-19T09:56:06.469Z,81.08
2023-04-19T09:58:50.842Z,80.83
2023-04-19T10:01:26.088Z,80.73
2023-04-19T10:04:01.159Z,81.06
2023-04-19T10:07:29.288Z,80.86
2023-04-19T10:10:19.985Z,80.84
2023-04-19T10:16:01.705Z,81.50
2023-04-19T10:18:52.669Z,81.15
2023-04-19T10:21:23.956Z,81.02
2023-04-19T10:23:53.054Z,81.17
2023-04-19T10:26:23.387Z,80.74
2023-04-19T10:28:56.762Z,80.71
2023-04-19T10:31:34.427Z,81.17
2023-04-19T10:34:04.456Z,81.44
2023-04-19T10:36:33.002Z,81.68
2023-04-19T10:39:04.353Z,81.87
2023-04-19T10:48:01.188Z,81.96
2023-04-19T10:50:32.811Z,81.04
2023-04-19T10:53:39.386Z,80.26
2023-04-19T10:56:10.692Z,80.06
2023-04-19T10:59:00.905Z,80.05
2023-04-19T11:01:43.585Z,80.24
2023-04-19T11:04:14.398Z,80.28
2023-04-19T11:06:52.360Z,79.92
2023-04-19T11:09:54.323Z,79.81
2023-04-19T11:12:23.537Z,79.29
2023-04-19T11:14:59.828Z,77.68
2023-04-19T11:17:32.669Z,75.81
2023-04-19T11:23:23.240Z,73.22
2023-04-19T11:25:53.997Z,72.10
2023-04-19T11:28:26.600Z,71.61
2023-04-19T11:30:55.681Z,70.04
2023-04-19T11:33:29.089Z,68.28
2023-04-19T11:35:57.887Z,68.52
2023-04-19T11:38:31.632Z,67.06
2023-04-19T11:41:04.510Z,65.95
2023-04-19T11:43:33.980Z,65.69
2023-04-19T11:46:10.485Z,63.62
2023-04-19T11:48:39.493Z,63.33
2023-04-19T11:51:10.976Z,61.76
2023-04-19T11:53:40.239Z,60.23
2023-04-19T11:56:09.730Z,59.59
2023-04-19T11:59:06.538Z,61.75
2023-04-19T12:01:34.542Z,60.83
2023-04-19T12:04:05.170Z,62.02
2023-04-19T12:06:33.240Z,63.25
2023-04-19T12:09:08.763Z,63.82
2023-04-19T12:11:50.395Z,64.37
2023-04-19T12:14:22.292Z,65.65
2023-04-19T12:17:14.710Z,65.75
2023-04-19T12:19:44.867Z,65.07
2023-04-19T12:22:28.303Z,64.70
2023-04-19T12:25:06.078Z,64.90
2023-04-19T12:27:36.371Z,65.40
2023-04-19T12:30:04.854Z,66.08
2023-04-19T12:32:34.080Z,66.10
2023-04-19T12:35:04.826Z,65.67
2023-04-19T12:40:36.799Z,66.50
2023-04-19T12:43:08.828Z,66.25
2023-04-19T12:45:36.774Z,66.08
2023-04-19T12:48:04.788Z,66.05
2023-04-19T12:50:32.789Z,66.04
2023-04-19T12:53:09.314Z,67.34
2023-04-19T12:55:37.211Z,66.62
2023-04-19T12:58:07.213Z,66.76
2023-04-19T13:00:35.293Z,66.21
2023-04-19T13:03:03.700Z,64.86
2023-04-19T13:05:31.715Z,63.68
2023-04-19T13:08:00.289Z,62.52
2023-04-19T13:10:28.227Z,62.64
2023-04-19T13:13:07.378Z,62.39
2023-04-19T13:16:22.226Z,60.49
2023-04-19T13:19:05.051Z,60.74
2023-04-19T13:26:31.187Z,58.51
2023-04-19T13:29:17.524Z,57.09
2023-04-19T13:31:56.705Z,57.37
2023-04-19T13:34:43.024Z,57.60
2023-04-19T13:37:15.801Z,58.18
2023-04-19T13:39:43.850Z,58.99
2023-04-19T13:42:14.340Z,59.75
2023-04-19T13:44:42.375Z,58.55
2023-04-19T13:47:12.622Z,59.07
2023-04-19T13:49:41.508Z,60.06
2023-04-19T13:52:13.365Z,60.67
2023-04-19T13:54:41.357Z,60.50
2023-04-19T13:57:09.846Z,61.12
2023-04-19T13:59:37.882Z,61.21
2023-04-19T14:02:06.346Z,60.97
2023-04-19T14:04:34.299Z,61.07
2023-04-19T14:07:02.309Z,60.59
2023-04-19T14:09:30.614Z,58.64
2023-04-19T14:12:03.741Z,54.52
2023-04-19T14:14:35.383Z,53.66
2023-04-19T14:17:03.682Z,53.70
2023-04-19T14:19:32.086Z,52.36
2023-04-19T14:24:07.938Z,51.89
2023-04-19T14:26:35.964Z,51.20
2023-04-19T14:29:05.619Z,49.31
2023-04-19T14:31:32.884Z,46.37
2023-04-19T14:34:00.692Z,45.92
2023-04-19T14:36:30.854Z,44.23
2023-04-19T14:38:57.384Z,42.07
2023-04-19T14:41:31.334Z,42.14
2023-04-19T14:43:58.162Z,41.45
2023-04-19T14:48:21.404Z,41.26
2023-04-19T14:51:44.789Z,43.09
2023-04-19T14:55:04.577Z,45.98
2023-04-19T14:57:33.196Z,47.90
2023-04-19T15:00:02.248Z,49.94
2023-04-19T15:02:30.539Z,51.91
2023-04-19T15:05:02.131Z,53.90
2023-04-19T15:07:36.711Z,55.25
2023-04-19T15:10:07.290Z,58.15
2023-04-19T15:12:35.158Z,62.16
2023-04-19T15:15:04.431Z,65.42
2023-04-19T15:17:33.355Z,66.48
2023-04-19T15:20:03.884Z,67.35
2023-04-19T15:23:08.617Z,69.18
2023-04-19T15:26:03.709Z,70.05
2023-04-19T15:28:36.245Z,71.53
2023-04-19T15:31:06.846Z,71.81
2023-04-19T15:33:37.252Z,72.03
2023-04-19T15:47:13.814Z,77.97
2023-04-19T15:49:41.956Z,78.02
2023-04-19T15:52:12.285Z,78.55
2023-04-19T15:55:08.610Z,79.20
2023-04-19T15:57:39.291Z,79.51
2023-04-19T16:02:46.099Z,79.83
2023-04-19T16:05:16.307Z,79.81
2023-04-19T16:07:46.682Z,80.10
2023-04-19T16:10:41.196Z,80.25
2023-04-19T16:13:09.277Z,80.49
2023-04-19T16:16:34.824Z,80.66
2023-04-19T16:20:13.313Z,80.50
2023-04-19T16:23:54.053Z,80.50
2023-04-19T16:27:34.730Z,80.65
2023-04-19T16:42:04.282Z,81.12
2023-04-19T16:45:17.027Z,80.99
2023-04-19T16:48:43.880Z,80.89
2023-04-19T16:52:10.928Z,81.06
2023-04-19T16:55:43.041Z,81.36
2023-04-19T16:59:22.034Z,81.67
2023-04-19T17:01:50.666Z,81.77
2023-04-19T17:04:19.255Z,82.03
2023-04-19T17:06:54.965Z,82.25
2023-04-19T17:09:26.755Z,82.49
2023-04-19T17:11:57.450Z,82.63
2023-04-19T17:14:25.691Z,82.81
2023-04-19T17:16:53.627Z,82.80
2023-04-19T17:19:21.449Z,82.76
2023-04-19T17:21:49.401Z,82.94
2023-04-19T17:24:18.145Z,83.08
2023-04-19T17:26:46.158Z,83.08
2023-04-19T17:29:14.001Z,83.06
2023-04-19T17:31:42.099Z,83.06
2023-04-19T17:34:10.404Z,83.10
2023-04-19T17:36:38.284Z,83.19
2023-04-19T17:39:07.868Z,83.26
2023-04-19T17:41:35.671Z,83.35
2023-04-19T17:44:03.591Z,83.49
2023-04-19T17:46:31.590Z,83.44
2023-04-19T17:49:06.856Z,83.58
2023-04-19T17:51:34.775Z,83.67
2023-04-19T17:54:06.198Z,83.62
2023-04-19T17:56:33.995Z,83.56
2023-04-19T17:59:03.954Z,83.61
2023-04-19T18:01:37.245Z,83.61
2023-04-19T18:04:06.678Z,83.68
2023-04-19T18:06:34.705Z,83.69
2023-04-19T18:09:03.170Z,83.77
2023-04-19T18:11:30.933Z,83.88
2023-04-19T18:13:59.290Z,84.00
2023-04-19T18:16:30.365Z,84.15
2023-04-19T18:18:59.366Z,84.22
2023-04-19T18:21:27.301Z,84.36
2023-04-19T18:23:57.652Z,84.57
2023-04-19T18:26:42.492Z,84.73
2023-04-19T18:29:12.508Z,84.91
2023-04-19T18:31:40.556Z,85.13
2023-04-19T18:34:11.198Z,85.29
2023-04-19T18:36:43.025Z,85.42
2023-04-19T18:39:11.280Z,85.56
2023-04-19T18:41:39.520Z,85.66
2023-04-19T18:44:34.785Z,85.80
2023-04-19T18:53:30.874Z,86.24
2023-04-19T18:55:58.769Z,86.19
2023-04-19T18:58:28.408Z,86.09
2023-04-19T19:00:56.990Z,85.88
2023-04-19T19:05:55.851Z,85.31
2023-04-19T19:08:24.052Z,84.73
2023-04-19T19:13:22.692Z,84.20
2023-04-19T19:15:50.561Z,83.74
2023-04-19T19:18:18.446Z,83.24
2023-04-19T19:20:46.372Z,81.96
2023-04-19T19:23:14.895Z,81.45
2023-04-19T19:25:43.078Z,80.84
2023-04-19T19:28:11.334Z,80.37
2023-04-19T19:30:42.783Z,79.98
2023-04-19T19:33:11.507Z,79.47
2023-04-19T19:35:39.975Z,79.35
2023-04-19T19:38:08.350Z,79.29
2023-04-19T19:40:40.850Z,79.20
2023-04-19T19:43:24.163Z,78.22
2023-04-19T19:45:51.983Z,77.48
2023-04-19T19:48:19.890Z,77.43
2023-04-19T19:51:17.404Z,77.41
2023-04-19T19:53:37.088Z,77.63
2023-04-19T19:56:12.894Z,78.04
2023-04-19T19:58:50.222Z,78.35
2023-04-19T20:01:22.503Z,78.64
2023-04-19T20:03:51.236Z,78.75
2023-04-19T20:08:57.427Z,77.81
2023-04-19T20:11:25.680Z,77.72
2023-04-19T20:13:53.415Z,77.68
2023-04-19T20:16:21.608Z,77.99
2023-04-19T20:18:49.485Z,78.25
2023-04-19T20:21:19.713Z,78.66
2023-04-19T20:23:50.111Z,78.87
2023-04-19T20:26:18.336Z,79.03
2023-04-19T20:28:46.105Z,78.99
2023-04-19T20:31:14.514Z,78.89
2023-04-19T20:33:42.268Z,78.82
2023-04-19T20:36:10.210Z,78.17
2023-04-19T20:38:40.308Z,77.68
2023-04-19T20:41:09.141Z,77.14
2023-04-19T20:43:39.396Z,77.09
2023-04-19T20:46:08.681Z,77.55
2023-04-19T20:48:36.987Z,78.18
2023-04-19T20:51:08.827Z,78.64
2023-04-19T20:53:36.755Z,78.77
2023-04-19T21:00:45.104Z,79.69
2023-04-19T21:03:13.605Z,79.77
2023-04-19T21:05:41.695Z,80.17
2023-04-19T21:08:13.401Z,80.51
2023-04-19T21:10:41.397Z,80.80
2023-04-19T21:13:09.820Z,80.98
2023-04-19T21:15:37.886Z,81.13
2023-04-19T21:18:07.081Z,81.34
2023-04-19T21:20:35.791Z,81.48
2023-04-19T21:23:04.337Z,81.56
2023-04-19T21:25:32.342Z,81.64
2023-04-19T21:28:00.052Z,81.48
2023-04-19T21:30:27.853Z,81.25
2023-04-19T21:32:55.852Z,81.18
2023-04-19T21:39:43.807Z,80.82
2023-04-19T21:42:11.561Z,80.60
2023-04-19T21:44:39.414Z,80.26
2023-04-19T21:47:07.911Z,80.01
2023-04-19T21:49:36.578Z,80.36
2023-04-19T21:52:05.580Z,80.81
2023-04-19T21:54:34.760Z,80.92
2023-04-19T21:57:03.248Z,80.92
2023-04-19T21:59:31.153Z,81.03
2023-04-19T22:01:59.129Z,80.86
2023-04-19T22:04:31.072Z,80.75
2023-04-19T22:07:03.057Z,80.55
2023-04-19T22:09:31.177Z,80.42
2023-04-19T22:12:00.974Z,80.34
2023-04-19T22:18:49.797Z,80.25
2023-04-19T22:21:17.740Z,80.22
2023-04-19T22:23:45.988Z,80.26
2023-04-19T22:26:13.729Z,80.31
2023-04-19T22:28:41.536Z,80.22
2023-04-19T22:31:09.357Z,80.24
2023-04-19T22:33:37.283Z,80.47
2023-04-19T22:36:06.900Z,80.55
2023-04-19T22:38:34.597Z,80.55
2023-04-19T22:41:02.690Z,80.47
2023-04-19T22:43:30.551Z,80.27
2023-04-19T22:45:58.370Z,80.33
2023-04-19T22:48:28.049Z,80.61
2023-04-19T22:50:56.854Z,80.81
2023-04-19T22:53:24.572Z,80.77
2023-04-19T22:55:52.671Z,80.66
2023-04-19T22:58:20.469Z,80.59
2023-04-19T23:00:48.287Z,80.54
2023-04-19T23:03:16.689Z,80.63
2023-04-19T23:05:44.627Z,80.77
2023-04-19T23:08:12.922Z,80.85
2023-04-19T23:10:42.389Z,80.92
2023-04-19T23:13:10.608Z,81.13
2023-04-19T23:15:39.369Z,81.27
2023-04-19T23:18:07.484Z,81.31
2023-04-19T23:20:35.793Z,81.43
2023-04-19T23:23:03.633Z,81.46
2023-04-19T23:25:31.531Z,81.52
2023-04-19T23:28:00.540Z,81.68
2023-04-19T23:30:29.613Z,81.82
2023-04-19T23:32:58.668Z,81.85
2023-04-19T23:35:26.525Z,81.86
2023-04-19T23:37:54.384Z,81.83
2023-04-19T23:40:24.371Z,81.87
2023-04-19T23:42:52.114Z,81.98
2023-04-19T23:45:19.973Z,82.02
2023-04-19T23:47:47.760Z,82.04
2023-04-19T23:50:16.042Z,82.06
2023-04-19T23:52:43.731Z,82.09
2023-04-19T23:55:12.616Z,82.14
2023-04-19T23:57:40.618Z,82.30
